TAF KMBG
KMBG 072331Z 0800/0824 12003KT P6SM BKN150 FM082000 16012G18KT P6SM SCT250 FM082200 15012KT P6SM SCT250=
METAR KMBG
WC KMBG
WS KMBG
WV KMBG